Time;durP1;ratioP1;P1;durP2;ratioP2;P2;SDS_P1;SDS_P2;PMS_P1;PMS_P2;Temp;Humidity;BMP_temperature;BMP_pressure;BME280_temperature;BME280_humidity;BME280_pressure;Samples;Min_cycle;Max_cycle;Signal;HPM_P1;HPM_P2
2021/03/10 00:01:06;;;;;;;14.45;10.00;;;4.50;94.30;;;;;;5065989;28;20158;-39
2021/03/10 00:03:34;;;;;;;13.70;11.10;;;4.50;94.30;;;;;;5066798;28;20032;-38
2021/03/10 00:05:59;;;;;;;14.73;10.85;;;4.50;94.40;;;;;;5066106;28;20029;-40
2021/03/10 00:08:25;;;;;;;17.05;11.48;;;4.40;94.40;;;;;;5066448;28;20440;-39
2021/03/10 00:10:53;;;;;;;15.23;10.93;;;4.30;94.40;;;;;;5066305;28;20028;-39
2021/03/10 00:13:19;;;;;;;14.25;10.85;;;4.30;94.50;;;;;;5065296;28;20044;-39
2021/03/10 00:15:44;;;;;;;15.65;10.82;;;4.30;94.50;;;;;;5065903;28;20058;-39
2021/03/10 00:18:10;;;;;;;14.45;11.20;;;4.30;94.60;;;;;;5065976;28;20113;-39
2021/03/10 00:20:36;;;;;;;14.20;10.07;;;4.40;94.70;;;;;;5065510;28;20460;-38
2021/03/10 00:23:01;;;;;;;15.10;10.07;;;4.50;94.60;;;;;;5066389;28;20120;-38
2021/03/10 00:25:27;;;;;;;13.65;10.63;;;4.60;94.60;;;;;;5065979;28;20019;-37
2021/03/10 00:27:52;;;;;;;12.73;9.13;;;4.70;94.50;;;;;;5065218;28;20024;-39
2021/03/10 00:30:18;;;;;;;14.18;10.65;;;4.80;94.50;;;;;;5065733;28;20051;-37
2021/03/10 00:32:44;;;;;;;15.50;10.80;;;4.80;94.60;;;;;;5064210;28;20028;-39
2021/03/10 00:35:10;;;;;;;14.73;10.82;;;4.90;94.30;;;;;;5063473;28;20029;-39
2021/03/10 00:37:35;;;;;;;16.17;11.13;;;5.00;94.20;;;;;;5065335;28;20040;-39
2021/03/10 00:40:01;;;;;;;13.05;10.43;;;5.00;94.20;;;;;;5065988;28;20035;-38
2021/03/10 00:42:27;;;;;;;16.02;10.60;;;5.00;94.20;;;;;;5064841;28;20555;-41
2021/03/10 00:44:52;;;;;;;15.02;10.75;;;5.00;94.20;;;;;;5064706;28;20035;-39
2021/03/10 00:47:18;;;;;;;16.08;10.98;;;5.00;94.20;;;;;;5064303;28;20029;-38
2021/03/10 00:49:44;;;;;;;12.50;9.70;;;5.10;94.10;;;;;;5064685;28;20036;-40
2021/03/10 00:52:10;;;;;;;13.13;9.82;;;5.00;94.10;;;;;;5064295;28;20027;-39
2021/03/10 00:54:42;;;;;;;11.80;9.05;;;5.00;94.00;;;;;;5064111;28;20409;-39
2021/03/10 00:57:11;;;;;;;13.70;9.77;;;4.90;94.00;;;;;;5064146;28;20483;-40
2021/03/10 00:59:36;;;;;;;13.35;10.05;;;4.90;94.10;;;;;;5063529;28;20052;-39
2021/03/10 01:02:05;;;;;;;13.60;9.35;;;4.80;94.10;;;;;;5064008;28;20510;-40
2021/03/10 01:04:30;;;;;;;13.43;9.50;;;4.70;94.20;;;;;;5064265;28;20087;-39
2021/03/10 01:06:56;;;;;;;12.45;9.65;;;4.60;94.30;;;;;;5064390;28;20381;-37
2021/03/10 01:09:22;;;;;;;13.77;9.52;;;4.50;94.30;;;;;;5064218;28;20877;-37
2021/03/10 01:11:47;;;;;;;12.55;8.82;;;4.50;94.40;;;;;;5062038;28;20065;-38
2021/03/10 01:14:15;;;;;;;14.80;10.18;;;4.40;94.40;;;;;;5063953;28;20032;-39
2021/03/10 01:16:40;;;;;;;11.63;9.13;;;4.40;94.50;;;;;;5063750;28;20032;-37
2021/03/10 01:19:06;;;;;;;13.35;9.57;;;4.30;94.50;;;;;;5064026;28;20038;-40
2021/03/10 01:21:32;;;;;;;12.38;9.23;;;4.30;94.60;;;;;;5064312;28;20024;-41
2021/03/10 01:23:58;;;;;;;12.88;10.20;;;4.30;94.60;;;;;;5063799;28;20495;-37
2021/03/10 01:26:23;;;;;;;14.05;9.75;;;4.20;94.60;;;;;;5063707;28;20028;-40
2021/03/10 01:28:49;;;;;;;15.02;10.85;;;4.20;94.70;;;;;;5063962;28;20105;-39
2021/03/10 01:31:14;;;;;;;17.17;11.63;;;4.10;94.70;;;;;;5063744;28;20470;-38
2021/03/10 01:33:40;;;;;;;14.80;10.00;;;4.10;94.70;;;;;;5063577;28;20556;-39
2021/03/10 01:36:06;;;;;;;15.63;10.68;;;4.00;94.80;;;;;;5063795;28;20029;-38
2021/03/10 01:38:31;;;;;;;14.15;10.60;;;4.00;94.80;;;;;;5063103;28;20036;-39
2021/03/10 01:40:57;;;;;;;14.73;11.10;;;4.00;94.80;;;;;;5064287;28;20038;-39
2021/03/10 01:43:22;;;;;;;15.52;10.60;;;4.00;94.80;;;;;;5063510;28;20024;-39
2021/03/10 01:45:48;;;;;;;14.35;10.55;;;3.90;94.80;;;;;;5063421;28;20117;-39
2021/03/10 01:48:16;;;;;;;14.55;10.48;;;3.90;94.90;;;;;;5063964;28;20111;-40
2021/03/10 01:50:41;;;;;;;14.73;10.52;;;3.90;94.90;;;;;;5052790;28;20020;-40
2021/03/10 01:53:16;;;;;;;13.63;9.32;;;3.80;94.90;;;;;;5063465;28;20527;-40
2021/03/10 01:55:43;;;;;;;13.40;9.30;;;3.80;94.90;;;;;;5063494;28;20055;-40
2021/03/10 01:58:09;;;;;;;13.27;9.80;;;3.80;94.90;;;;;;5063246;28;20029;-40
2021/03/10 02:00:34;;;;;;;15.05;9.85;;;3.80;95.00;;;;;;5059628;28;20013;-40
2021/03/10 02:03:00;;;;;;;14.70;10.10;;;3.80;95.00;;;;;;5063991;28;20029;-39
2021/03/10 02:05:27;;;;;;;14.07;10.20;;;3.80;95.00;;;;;;5063414;28;20105;-38
2021/03/10 02:08:20;;;;;;;13.10;9.15;;;3.80;95.00;;;;;;5063518;28;20024;-38
2021/03/10 02:11:08;;;;;;;14.30;10.13;;;3.80;95.00;;;;;;5062053;28;20123;-45
2021/03/10 02:13:43;;;;;;;14.85;10.45;;;3.80;95.00;;;;;;5063330;28;20115;-38
2021/03/10 02:16:20;;;;;;;13.55;9.48;;;3.70;94.90;;;;;;5060461;28;20111;-39
2021/03/10 02:18:50;;;;;;;13.73;9.60;;;3.70;95.00;;;;;;5063380;28;20574;-38
2021/03/10 02:21:30;;;;;;;12.27;9.65;;;3.70;95.00;;;;;;5059245;28;20078;-39
2021/03/10 02:24:21;;;;;;;13.95;9.77;;;3.70;95.00;;;;;;5064734;28;20353;-38
2021/03/10 02:27:15;;;;;;;14.02;10.38;;;3.60;95.00;;;;;;5066100;28;20024;-39
2021/03/10 02:29:41;;;;;;;;;;;3.60;95.00;;;;;;5067405;28;20056;-39
2021/03/10 02:32:11;;;;;;;12.57;8.88;;;3.60;95.00;;;;;;5067548;28;20473;-39
2021/03/10 02:34:40;;;;;;;16.05;10.38;;;3.60;95.00;;;;;;5066941;28;20028;-39
2021/03/10 02:37:07;;;;;;;14.02;10.35;;;3.50;95.10;;;;;;5066690;28;20054;-39
2021/03/10 02:39:33;;;;;;;14.07;10.30;;;3.50;95.10;;;;;;5067087;28;20040;-39
2021/03/10 02:41:59;;;;;;;15.05;10.43;;;3.50;95.20;;;;;;5066714;28;20020;-40
2021/03/10 02:44:26;;;;;;;15.23;10.82;;;3.60;95.20;;;;;;5067150;28;20094;-41
2021/03/10 02:46:56;;;;;;;17.13;11.50;;;3.60;95.20;;;;;;5066809;28;20017;-40
2021/03/10 02:49:22;;;;;;;14.90;10.68;;;3.60;95.20;;;;;;5066271;28;20028;-39
2021/03/10 02:51:48;;;;;;;16.45;11.32;;;3.70;95.20;;;;;;5065814;28;20090;-39
2021/03/10 02:54:16;;;;;;;14.00;10.70;;;3.70;95.20;;;;;;5066558;28;20025;-39
2021/03/10 02:56:43;;;;;;;15.73;10.82;;;3.80;95.20;;;;;;5066440;28;20103;-39
2021/03/10 02:59:09;;;;;;;16.98;11.13;;;3.80;95.10;;;;;;5066174;28;20548;-39
2021/03/10 03:01:38;;;;;;;14.77;10.93;;;3.90;95.10;;;;;;5066381;28;20071;-37
2021/03/10 03:04:04;;;;;;;18.75;12.15;;;3.90;95.00;;;;;;5066603;28;20056;-39
2021/03/10 03:06:30;;;;;;;15.10;11.23;;;3.90;95.00;;;;;;5066566;28;20055;-40
2021/03/10 03:08:56;;;;;;;17.77;12.52;;;4.00;95.00;;;;;;5066286;28;20406;-39
2021/03/10 03:11:22;;;;;;;15.25;11.70;;;4.00;95.00;;;;;;5065840;28;20120;-37
2021/03/10 03:13:47;;;;;;;16.45;12.10;;;4.00;95.00;;;;;;5066326;28;20421;-36
2021/03/10 03:16:14;;;;;;;20.08;13.00;;;4.00;95.00;;;;;;5065842;28;20112;-40
2021/03/10 03:18:40;;;;;;;20.17;13.63;;;4.00;95.00;;;;;;5066119;28;20041;-40
2021/03/10 03:21:05;;;;;;;19.88;14.10;;;4.10;95.00;;;;;;5066155;28;20024;-39
2021/03/10 03:23:31;;;;;;;19.65;13.95;;;4.10;95.00;;;;;;5065498;28;20139;-37
2021/03/10 03:25:57;;;;;;;19.70;13.65;;;4.20;95.00;;;;;;5066334;28;20085;-39
2021/03/10 03:28:27;;;;;;;19.05;13.15;;;4.20;95.00;;;;;;5066347;28;20032;-39
2021/03/10 03:30:57;;;;;;;19.85;13.50;;;4.20;95.00;;;;;;5065628;28;20029;-39
2021/03/10 03:33:26;;;;;;;18.98;13.50;;;4.30;95.00;;;;;;5066149;28;20143;-36
2021/03/10 03:35:54;;;;;;;17.95;12.43;;;4.30;95.00;;;;;;5065626;28;20032;-38
2021/03/10 03:38:22;;;;;;;18.88;11.80;;;4.30;95.00;;;;;;5065510;28;20054;-39
2021/03/10 03:40:50;;;;;;;18.20;12.20;;;4.40;95.00;;;;;;5066003;28;20021;-38
2021/03/10 03:43:15;;;;;;;17.73;11.90;;;4.40;95.00;;;;;;5065676;28;20029;-39
2021/03/10 03:45:41;;;;;;;18.33;12.82;;;4.50;95.00;;;;;;5065909;28;20029;-39
2021/03/10 03:48:07;;;;;;;18.48;13.40;;;4.50;95.00;;;;;;5065914;28;20361;-39
2021/03/10 03:50:33;;;;;;;19.95;14.05;;;4.50;95.00;;;;;;5065629;28;20021;-37
2021/03/10 03:52:59;;;;;;;20.67;13.88;;;4.50;95.00;;;;;;5065881;28;20017;-39
2021/03/10 03:55:24;;;;;;;19.48;14.18;;;4.50;95.30;;;;;;5065978;28;20034;-39
2021/03/10 03:57:50;;;;;;;20.70;14.25;;;4.50;95.00;;;;;;5065339;28;20047;-39
2021/03/10 04:00:19;;;;;;;17.25;12.10;;;4.60;95.00;;;;;;5065383;28;20523;-38
2021/03/10 04:02:45;;;;;;;16.13;11.52;;;4.60;95.00;;;;;;5065492;28;20024;-38
2021/03/10 04:05:18;;;;;;;16.85;12.30;;;4.60;95.00;;;;;;5065379;28;20048;-39
2021/03/10 04:07:55;;;;;;;17.23;12.60;;;4.60;95.00;;;;;;5065270;28;20032;-39
2021/03/10 04:10:26;;;;;;;20.88;13.85;;;4.60;95.00;;;;;;5054227;28;20456;-37
2021/03/10 04:12:53;;;;;;;19.40;14.00;;;4.60;95.00;;;;;;5064547;28;20023;-38
2021/03/10 04:15:19;;;;;;;19.38;13.02;;;4.70;95.00;;;;;;5065316;28;20488;-39
2021/03/10 04:17:44;;;;;;;17.15;12.15;;;4.70;95.00;;;;;;5065208;28;20037;-39
2021/03/10 04:20:16;;;;;;;17.85;13.40;;;4.70;95.00;;;;;;5064702;28;20115;-38
2021/03/10 04:22:42;;;;;;;18.02;13.18;;;4.70;95.10;;;;;;5065194;28;20035;-39
2021/03/10 04:25:08;;;;;;;18.00;12.80;;;4.70;95.10;;;;;;5064703;28;20020;-40
2021/03/10 04:27:35;;;;;;;18.25;13.35;;;4.70;95.10;;;;;;5065098;28;20040;-40
2021/03/10 04:30:01;;;;;;;21.30;14.20;;;4.70;95.10;;;;;;5065328;28;20071;-37
2021/03/10 04:32:26;;;;;;;19.48;14.15;;;4.70;95.10;;;;;;5065068;28;20052;-39
2021/03/10 04:34:58;;;;;;;20.40;14.13;;;4.70;95.10;;;;;;5064900;28;20024;-39
2021/03/10 04:37:27;;;;;;;19.17;14.43;;;4.60;95.10;;;;;;5065179;28;20040;-39
2021/03/10 04:39:52;;;;;;;20.58;14.05;;;4.60;95.20;;;;;;5063865;28;20078;-39
2021/03/10 04:42:21;;;;;;;20.33;14.52;;;4.60;95.50;;;;;;5064914;28;20468;-38
2021/03/10 04:44:46;;;;;;;20.58;14.57;;;4.50;95.40;;;;;;5064688;28;20437;-39
2021/03/10 04:47:12;;;;;;;18.83;13.50;;;4.60;95.40;;;;;;5063637;28;20021;-37
2021/03/10 04:49:37;;;;;;;19.35;14.15;;;4.60;95.40;;;;;;5064987;28;20040;-40
2021/03/10 04:52:03;;;;;;;21.00;14.07;;;4.60;95.40;;;;;;5064829;28;20024;-39
2021/03/10 04:54:29;;;;;;;20.58;14.18;;;4.60;95.40;;;;;;5064046;28;20399;-36
2021/03/10 04:56:54;;;;;;;18.38;13.40;;;4.60;95.40;;;;;;5065115;28;20037;-39
2021/03/10 04:59:20;;;;;;;18.48;13.93;;;4.70;95.50;;;;;;5064410;28;20076;-39
2021/03/10 05:01:45;;;;;;;19.05;13.88;;;4.70;95.50;;;;;;5063945;28;20028;-37
2021/03/10 05:04:11;;;;;;;18.02;13.68;;;4.70;95.50;;;;;;5064732;28;20509;-37
2021/03/10 05:06:37;;;;;;;19.45;14.07;;;4.70;95.50;;;;;;5064463;28;20074;-37
2021/03/10 05:09:04;;;;;;;18.58;13.65;;;4.70;95.50;;;;;;5064370;28;20024;-38
2021/03/10 05:11:30;;;;;;;22.55;14.32;;;4.80;95.50;;;;;;5064181;28;20500;-38
2021/03/10 05:13:58;;;;;;;17.13;12.38;;;4.80;95.50;;;;;;5065351;28;20024;-36
2021/03/10 05:16:26;;;;;;;16.95;12.70;;;4.80;95.50;;;;;;5063445;28;20100;-39
2021/03/10 05:18:52;;;;;;;17.58;12.95;;;4.70;95.50;;;;;;5064710;28;20057;-39
2021/03/10 05:21:18;;;;;;;19.80;13.43;;;4.80;95.50;;;;;;5064533;28;20090;-39
2021/03/10 05:23:43;;;;;;;18.17;13.13;;;4.70;95.50;;;;;;5064073;28;20475;-40
2021/03/10 05:26:13;;;;;;;16.15;12.13;;;4.70;95.50;;;;;;5064534;28;20104;-40
2021/03/10 05:28:39;;;;;;;17.27;12.40;;;4.70;95.60;;;;;;5064278;28;20028;-39
2021/03/10 05:31:06;;;;;;;18.80;12.88;;;4.70;95.60;;;;;;5063759;28;20353;-40
2021/03/10 05:33:32;;;;;;;17.05;12.20;;;4.70;95.60;;;;;;5064563;28;20036;-38
2021/03/10 05:35:58;;;;;;;16.23;12.00;;;4.70;95.60;;;;;;5063863;28;20017;-36
2021/03/10 05:38:24;;;;;;;15.48;12.10;;;4.80;95.60;;;;;;5064098;28;20117;-39
2021/03/10 05:40:50;;;;;;;18.80;12.55;;;4.80;95.60;;;;;;5063988;28;20036;-40
2021/03/10 05:43:16;;;;;;;16.05;11.73;;;4.70;95.60;;;;;;5063220;28;20047;-39
2021/03/10 05:45:42;;;;;;;16.63;12.13;;;4.80;95.60;;;;;;5064294;28;20449;-39
2021/03/10 05:48:08;;;;;;;15.38;11.52;;;4.80;95.60;;;;;;5063920;28;20154;-40
2021/03/10 05:50:33;;;;;;;15.52;11.10;;;4.80;95.60;;;;;;5063202;28;20046;-38
2021/03/10 05:53:01;;;;;;;14.07;11.07;;;4.80;95.60;;;;;;5064120;28;20283;-39
2021/03/10 05:55:29;;;;;;;14.52;11.32;;;4.80;95.60;;;;;;5063612;28;20045;-38
2021/03/10 05:57:54;;;;;;;15.00;11.40;;;4.90;95.60;;;;;;5064246;28;20496;-39
2021/03/10 06:00:20;;;;;;;14.25;10.82;;;4.90;95.60;;;;;;5068190;28;20078;-39
2021/03/10 06:02:46;;;;;;;14.52;10.48;;;4.90;95.60;;;;;;5067798;28;20476;-38
2021/03/10 06:05:22;;;;;;;14.48;11.27;;;4.90;95.50;;;;;;5067547;28;20036;-37
2021/03/10 06:08:05;;;;;;;14.95;10.90;;;4.90;95.50;;;;;;5067899;28;20601;-39
2021/03/10 06:10:44;;;;;;;14.90;11.43;;;5.00;95.50;;;;;;5067872;28;20120;-40
2021/03/10 06:13:20;;;;;;;12.95;10.10;;;4.90;95.50;;;;;;5067159;28;20187;-39
2021/03/10 06:15:46;;;;;;;18.45;11.80;;;4.90;95.50;;;;;;5068270;28;20035;-39
2021/03/10 06:18:32;;;;;;;16.23;11.65;;;4.90;95.40;;;;;;5066910;28;20143;-39
2021/03/10 06:21:13;;;;;;;14.25;10.43;;;5.00;95.50;;;;;;5067685;28;20102;-40
2021/03/10 06:23:56;;;;;;;13.98;10.43;;;4.90;95.50;;;;;;5067589;28;20024;-39
2021/03/10 06:26:24;;;;;;;15.23;11.32;;;4.90;95.50;;;;;;5047397;28;20028;-39
2021/03/10 06:28:50;;;;;;;14.27;10.32;;;4.90;95.50;;;;;;5063176;28;20028;-38
2021/03/10 06:31:21;;;;;;;17.42;12.27;;;4.90;95.50;;;;;;5067397;28;20111;-40
2021/03/10 06:34:04;;;;;;;17.50;11.18;;;4.90;95.50;;;;;;5066879;28;20166;-37
2021/03/10 06:36:32;;;;;;;16.85;12.30;;;4.90;95.60;;;;;;5068265;28;20040;-38
2021/03/10 06:38:57;;;;;;;17.83;13.07;;;4.90;95.60;;;;;;5067449;28;20036;-39
2021/03/10 06:41:30;;;;;;;19.42;13.10;;;4.90;95.50;;;;;;5066796;28;20025;-33
2021/03/10 06:43:56;;;;;;;16.00;12.52;;;4.90;95.60;;;;;;5067562;28;20024;-38
2021/03/10 06:46:21;;;;;;;16.50;12.15;;;4.90;95.60;;;;;;5067198;28;20715;-37
2021/03/10 06:49:03;;;;;;;15.45;11.02;;;5.00;95.60;;;;;;5067180;28;20494;-39
2021/03/10 06:51:31;;;;;;;16.60;11.13;;;5.00;95.60;;;;;;5067463;28;20025;-37
2021/03/10 06:53:57;;;;;;;16.75;11.65;;;5.00;95.60;;;;;;5067059;28;20145;-38
2021/03/10 06:56:27;;;;;;;18.88;11.65;;;5.00;95.60;;;;;;5064972;28;20187;-37
2021/03/10 06:59:02;;;;;;;17.15;12.43;;;5.00;95.60;;;;;;5066298;28;20056;-39
2021/03/10 07:01:41;;;;;;;20.95;14.27;;;5.00;95.60;;;;;;5065851;28;20367;-39
2021/03/10 07:04:12;;;;;;;17.77;12.48;;;5.10;95.60;;;;;;5062741;28;20027;-36
2021/03/10 07:06:38;;;;;;;20.30;13.23;;;5.00;95.60;;;;;;5066232;28;20031;-37
2021/03/10 07:09:13;;;;;;;18.05;12.75;;;5.10;95.60;;;;;;5065380;28;20024;-37
2021/03/10 07:11:42;;;;;;;19.70;14.25;;;5.10;95.60;;;;;;5066133;28;20059;-40
2021/03/10 07:14:13;;;;;;;21.52;15.02;;;5.10;95.60;;;;;;5065230;28;20059;-41
2021/03/10 07:16:40;;;;;;;27.20;16.85;;;5.10;95.60;;;;;;5055316;28;20035;-42
2021/03/10 07:19:08;;;;;;;25.45;17.55;;;5.20;95.60;;;;;;5065428;28;20063;-43
2021/03/10 07:21:58;;;;;;;27.90;18.77;;;5.20;95.60;;;;;;5065341;28;20115;-41
2021/03/10 07:24:36;;;;;;;26.58;17.95;;;5.20;95.60;;;;;;5066048;28;20047;-38
2021/03/10 07:27:04;;;;;;;30.13;19.70;;;5.30;95.60;;;;;;5059670;28;20089;-38
2021/03/10 07:29:37;;;;;;;31.15;19.35;;;5.30;95.50;;;;;;5066314;28;20035;-38
2021/03/10 07:32:06;;;;;;;41.47;26.70;;;5.40;95.60;;;;;;5066578;28;20028;-39
2021/03/10 07:34:33;;;;;;;42.22;24.50;;;5.40;96.20;;;;;;5066692;28;20032;-39
2021/03/10 07:36:59;;;;;;;41.97;26.50;;;5.50;95.80;;;;;;5066525;28;20466;-39
2021/03/10 07:39:29;;;;;;;38.97;25.13;;;5.50;95.70;;;;;;5066353;28;20039;-38
2021/03/10 07:41:55;;;;;;;40.53;24.98;;;5.60;95.70;;;;;;5066926;28;20517;-38
2021/03/10 07:44:24;;;;;;;40.40;25.65;;;5.60;95.70;;;;;;5065966;28;20024;-37
2021/03/10 07:47:05;;;;;;;43.00;27.85;;;5.70;95.70;;;;;;5066072;28;20029;-38
2021/03/10 07:49:31;;;;;;;42.97;27.52;;;5.70;95.70;;;;;;5066057;28;20502;-40
2021/03/10 07:52:05;;;;;;;46.60;28.17;;;5.80;95.70;;;;;;5066361;28;20029;-39
2021/03/10 07:54:31;;;;;;;46.67;29.00;;;5.80;95.70;;;;;;5066281;28;20429;-38
2021/03/10 07:57:08;;;;;;;47.88;28.35;;;5.80;95.70;;;;;;5065941;28;20448;-39
2021/03/10 07:59:33;;;;;;;45.28;28.67;;;5.90;95.70;;;;;;5066005;28;20529;-36
2021/03/10 08:02:03;;;;;;;47.60;29.33;;;5.90;96.00;;;;;;5066051;28;20481;-39
2021/03/10 08:04:29;;;;;;;46.38;28.48;;;5.90;95.70;;;;;;5046108;28;20745;-39
2021/03/10 08:06:58;;;;;;;44.80;29.58;;;6.00;95.70;;;;;;5060791;28;20103;-39
2021/03/10 08:09:25;;;;;;;43.67;28.45;;;6.00;95.70;;;;;;5065946;28;20035;-39
2021/03/10 08:12:06;;;;;;;43.80;28.95;;;6.00;95.70;;;;;;5065038;28;20032;-39
2021/03/10 08:14:37;;;;;;;43.75;28.00;;;6.10;95.70;;;;;;5066965;28;20029;-40
2021/03/10 08:17:07;;;;;;;42.15;27.75;;;6.10;95.60;;;;;;5065421;28;20021;-39
2021/03/10 08:19:33;;;;;;;44.63;29.58;;;6.20;95.70;;;;;;5064467;28;20131;-38
2021/03/10 08:21:59;;;;;;;45.60;29.30;;;6.20;95.80;;;;;;5065632;28;20029;-39
2021/03/10 08:24:27;;;;;;;45.55;30.52;;;6.20;95.70;;;;;;5066075;28;20439;-40
2021/03/10 08:26:56;;;;;;;47.70;30.13;;;6.30;95.80;;;;;;5065284;28;20390;-41
2021/03/10 08:29:22;;;;;;;47.35;30.52;;;6.30;95.70;;;;;;5066287;28;20359;-39
2021/03/10 08:31:53;;;;;;;46.00;29.88;;;6.30;95.70;;;;;;5065038;28;20032;-40
2021/03/10 08:34:32;;;;;;;41.75;27.67;;;6.40;95.70;;;;;;5064841;28;20396;-39
2021/03/10 08:36:58;;;;;;;41.78;28.55;;;6.40;95.70;;;;;;5065315;28;20024;-40
2021/03/10 08:39:24;;;;;;;39.63;26.42;;;6.50;95.70;;;;;;5064578;28;20046;-40
2021/03/10 08:41:53;;;;;;;43.97;27.88;;;6.50;95.70;;;;;;5065027;28;20017;-37
2021/03/10 08:44:21;;;;;;;42.35;27.10;;;6.50;95.60;;;;;;5064597;28;20039;-39
2021/03/10 08:46:47;;;;;;;52.70;32.72;;;6.60;95.60;;;;;;5064236;28;20542;-38
2021/03/10 08:49:31;;;;;;;49.55;31.40;;;6.60;95.90;;;;;;5064914;28;20044;-40
2021/03/10 08:52:04;;;;;;;49.13;30.20;;;6.70;95.70;;;;;;5065008;28;20119;-39
2021/03/10 08:54:30;;;;;;;50.33;31.55;;;6.70;95.60;;;;;;5061466;28;20131;-38
2021/03/10 08:56:56;;;;;;;50.63;34.45;;;6.70;95.70;;;;;;5065244;28;20075;-39
2021/03/10 08:59:32;;;;;;;48.92;31.75;;;6.80;95.70;;;;;;5064221;28;20403;-39
2021/03/10 09:01:58;;;;;;;48.90;32.20;;;6.80;95.70;;;;;;5064661;28;20020;-38
2021/03/10 09:04:25;;;;;;;49.00;32.58;;;6.90;95.70;;;;;;5064744;28;20028;-43
2021/03/10 09:06:52;;;;;;;46.65;31.50;;;6.90;95.70;;;;;;5064728;28;20029;-40
2021/03/10 09:09:19;;;;;;;50.50;33.42;;;6.90;95.60;;;;;;5064291;28;20020;-37
2021/03/10 09:11:46;;;;;;;45.05;30.48;;;7.00;95.70;;;;;;5064576;28;20039;-40
2021/03/10 09:14:12;;;;;;;43.90;29.38;;;7.00;95.60;;;;;;5066393;28;20043;-40
2021/03/10 09:16:58;;;;;;;47.65;31.10;;;7.10;95.60;;;;;;5065557;28;20024;-41
2021/03/10 09:19:28;;;;;;;44.67;30.92;;;7.10;95.60;;;;;;5064686;28;20074;-40
2021/03/10 09:22:10;;;;;;;48.00;32.22;;;7.20;95.50;;;;;;5064420;28;20060;-40
2021/03/10 09:25:12;;;;;;;42.38;29.17;;;7.30;95.50;;;;;;5064724;28;20444;-39
2021/03/10 09:27:38;;;;;;;47.67;30.08;;;7.30;95.50;;;;;;5040504;28;20034;-40
2021/03/10 09:30:08;;;;;;;41.03;27.25;;;7.40;95.40;;;;;;5061929;28;20702;-38
2021/03/10 09:32:46;;;;;;;43.33;30.08;;;7.40;95.30;;;;;;5064007;28;20040;-39
2021/03/10 09:35:28;;;;;;;41.58;28.15;;;7.50;95.30;;;;;;5063934;28;20452;-38
2021/03/10 09:37:57;;;;;;;42.42;28.10;;;7.50;95.30;;;;;;5064287;28;20601;-39
2021/03/10 09:40:45;;;;;;;41.00;28.27;;;7.60;95.20;;;;;;5063913;28;20032;-40
2021/03/10 09:43:15;;;;;;;49.47;32.65;;;7.60;95.10;;;;;;5064319;28;20112;-38
2021/03/10 09:45:42;;;;;;;49.30;30.88;;;7.70;95.00;;;;;;5064263;28;20039;-39
2021/03/10 09:48:14;;;;;;;44.95;29.58;;;7.70;95.00;;;;;;5064243;28;20448;-41
2021/03/10 09:50:43;;;;;;;43.15;28.67;;;7.70;95.00;;;;;;5063808;28;20031;-38
2021/03/10 09:53:22;;;;;;;40.13;27.58;;;7.80;95.00;;;;;;5044492;28;20102;-39
2021/03/10 09:55:52;;;;;;;39.03;25.52;;;7.80;95.00;;;;;;5060562;28;20102;-38
2021/03/10 09:58:18;;;;;;;49.20;30.77;;;7.90;95.00;;;;;;5044270;28;20045;-40
2021/03/10 10:00:44;;;;;;;41.33;28.58;;;8.00;94.90;;;;;;5058388;28;20079;-40
2021/03/10 10:03:10;;;;;;;46.70;30.75;;;8.00;94.80;;;;;;5064100;28;20133;-39
2021/03/10 10:05:38;;;;;;;43.75;30.38;;;8.00;94.70;;;;;;5064467;28;20514;-39
2021/03/10 10:08:06;;;;;;;44.88;29.90;;;8.10;94.70;;;;;;5064077;28;20040;-38
2021/03/10 10:10:34;;;;;;;47.53;31.17;;;8.10;94.60;;;;;;5063719;28;20028;-39
2021/03/10 10:13:00;;;;;;;43.97;30.27;;;8.10;94.60;;;;;;5064568;28;20093;-38
2021/03/10 10:15:32;;;;;;;44.40;29.98;;;8.20;94.50;;;;;;5064083;28;20065;-39
2021/03/10 10:18:00;;;;;;;40.10;27.90;;;8.20;94.50;;;;;;5063965;28;20032;-38
2021/03/10 10:20:28;;;;;;;39.78;28.17;;;8.20;94.40;;;;;;5063756;28;20028;-37
2021/03/10 10:22:54;;;;;;;37.40;24.98;;;8.20;94.40;;;;;;5064167;28;20531;-41
2021/03/10 10:25:20;;;;;;;39.25;27.70;;;8.30;94.40;;;;;;5063566;28;20024;-39
2021/03/10 10:27:47;;;;;;;46.03;29.20;;;8.30;94.30;;;;;;5064194;28;20032;-39
2021/03/10 10:30:15;;;;;;;38.90;26.48;;;8.30;94.30;;;;;;5064253;28;20099;-40
2021/03/10 10:32:42;;;;;;;40.60;29.05;;;8.40;94.40;;;;;;5060107;28;20036;-36
2021/03/10 10:35:09;;;;;;;41.90;27.90;;;8.40;94.20;;;;;;5063693;28;20409;-38
2021/03/10 10:37:35;;;;;;;40.38;28.05;;;8.50;94.10;;;;;;5063589;28;20380;-39
2021/03/10 10:40:01;;;;;;;37.38;27.70;;;8.50;94.00;;;;;;5063770;28;20025;-40
2021/03/10 10:42:26;;;;;;;38.15;27.65;;;8.60;94.00;;;;;;5063675;28;20107;-38
2021/03/10 10:44:53;;;;;;;34.20;24.48;;;8.70;93.90;;;;;;5064459;28;20097;-37
2021/03/10 10:47:19;;;;;;;42.17;27.23;;;8.80;93.90;;;;;;5066978;28;20028;-40
2021/03/10 10:49:45;;;;;;;40.85;29.98;;;8.80;93.60;;;;;;5067191;28;20017;-40
2021/03/10 10:52:10;;;;;;;43.35;29.27;;;8.90;93.30;;;;;;5067080;28;20380;-39
2021/03/10 10:54:37;;;;;;;45.72;31.35;;;8.90;93.20;;;;;;5067100;28;20174;-37
2021/03/10 10:57:03;;;;;;;40.35;28.02;;;8.90;92.70;;;;;;5066456;28;20080;-40
2021/03/10 10:59:31;;;;;;;41.05;30.05;;;9.00;92.90;;;;;;5066017;28;20067;-40
2021/03/10 11:01:58;;;;;;;39.20;27.50;;;9.00;92.70;;;;;;5068080;28;20093;-40
2021/03/10 11:04:23;;;;;;;37.45;27.10;;;9.00;92.60;;;;;;5066906;28;20028;-39
2021/03/10 11:06:49;;;;;;;40.40;28.67;;;9.00;92.60;;;;;;5063878;28;20028;-39
2021/03/10 11:09:14;;;;;;;37.00;25.73;;;9.00;92.40;;;;;;5066767;28;20024;-40
2021/03/10 11:11:40;;;;;;;38.03;25.65;;;9.00;92.60;;;;;;5065699;28;20021;-39
2021/03/10 11:14:06;;;;;;;36.35;25.50;;;9.00;92.40;;;;;;5066223;28;20474;-38
2021/03/10 11:16:32;;;;;;;36.47;25.83;;;9.00;92.40;;;;;;5066077;28;20047;-39
2021/03/10 11:18:58;;;;;;;35.75;25.20;;;9.00;92.00;;;;;;5066157;28;20028;-38
2021/03/10 11:21:24;;;;;;;34.20;23.00;;;9.00;92.20;;;;;;5066880;28;20024;-40
2021/03/10 11:23:49;;;;;;;35.05;23.60;;;9.00;92.10;;;;;;5065431;28;20346;-39
2021/03/10 11:26:15;;;;;;;35.85;24.45;;;9.00;92.20;;;;;;5066443;28;20482;-39
2021/03/10 11:28:41;;;;;;;33.67;23.38;;;9.10;92.00;;;;;;5065449;28;20483;-40
2021/03/10 11:31:07;;;;;;;30.48;23.27;;;9.10;91.80;;;;;;5066167;28;20103;-39
2021/03/10 11:33:34;;;;;;;32.25;22.52;;;9.10;91.70;;;;;;5066083;28;20028;-39
2021/03/10 11:36:03;;;;;;;30.92;22.20;;;9.10;91.70;;;;;;5066196;28;20357;-38
2021/03/10 11:38:29;;;;;;;27.80;20.73;;;9.20;91.50;;;;;;5066390;28;20058;-39
2021/03/10 11:40:55;;;;;;;29.98;20.65;;;9.30;91.60;;;;;;5066851;28;20069;-39
2021/03/10 11:43:21;;;;;;;30.35;22.42;;;9.30;91.40;;;;;;5065860;28;20341;-40
2021/03/10 11:45:46;;;;;;;34.67;23.58;;;9.30;90.80;;;;;;5066132;28;20036;-39
2021/03/10 11:48:12;;;;;;;28.08;21.02;;;9.40;90.70;;;;;;5065892;28;20028;-40
2021/03/10 11:50:37;;;;;;;33.00;21.38;;;9.50;90.90;;;;;;5066255;28;20107;-40
2021/03/10 11:53:09;;;;;;;29.27;20.00;;;9.50;90.80;;;;;;5066852;28;20036;-42
2021/03/10 11:55:36;;;;;;;28.88;20.52;;;9.50;90.60;;;;;;5066511;28;20070;-39
2021/03/10 11:58:02;;;;;;;26.48;19.13;;;9.50;90.70;;;;;;5067032;28;20029;-40
2021/03/10 12:00:28;;;;;;;28.92;20.85;;;9.60;90.70;;;;;;5066553;28;20033;-40
2021/03/10 12:02:53;;;;;;;28.13;18.95;;;9.60;90.00;;;;;;5066687;28;20119;-40
2021/03/10 12:05:19;;;;;;;30.65;20.80;;;9.60;90.30;;;;;;5066371;28;20028;-40
2021/03/10 12:07:46;;;;;;;29.20;19.83;;;9.70;89.80;;;;;;5066495;28;20044;-41
2021/03/10 12:10:12;;;;;;;30.95;20.33;;;9.70;89.70;;;;;;5066265;28;20103;-40
2021/03/10 12:12:38;;;;;;;28.50;19.88;;;9.70;89.30;;;;;;5066403;28;20032;-40
2021/03/10 12:15:06;;;;;;;27.30;18.40;;;9.80;89.60;;;;;;5066025;28;20605;-39
2021/03/10 12:17:34;;;;;;;25.55;17.33;;;9.90;90.00;;;;;;5066297;28;20040;-40
2021/03/10 12:20:00;;;;;;;28.15;19.42;;;9.90;90.00;;;;;;5066276;28;20502;-40
2021/03/10 12:22:26;;;;;;;25.08;17.45;;;10.10;89.30;;;;;;5066270;28;20021;-40
2021/03/10 12:24:51;;;;;;;26.90;17.55;;;10.10;88.90;;;;;;5066137;28;20040;-40
2021/03/10 12:27:24;;;;;;;28.63;17.15;;;10.20;89.00;;;;;;5066297;28;20391;-39
2021/03/10 12:29:51;;;;;;;23.70;17.20;;;10.20;88.20;;;;;;5066404;28;20051;-41
2021/03/10 12:32:20;;;;;;;22.08;16.38;;;10.30;87.90;;;;;;5065860;28;20058;-39
2021/03/10 12:34:45;;;;;;;25.58;19.15;;;10.40;87.60;;;;;;5066194;28;20392;-40
2021/03/10 12:37:11;;;;;;;26.55;18.55;;;10.50;87.20;;;;;;5066016;28;20585;-41
2021/03/10 12:39:38;;;;;;;23.35;18.13;;;10.60;86.80;;;;;;5065675;28;20043;-38
2021/03/10 12:42:09;;;;;;;25.35;17.25;;;10.70;87.10;;;;;;5066028;28;20031;-41
2021/03/10 12:44:44;;;;;;;23.60;18.25;;;10.70;86.70;;;;;;5063826;28;20111;-41